sensor_id;sensor_type;location;lat;lon;timestamp;pressure;altitude;pressure_sealevel;temperature;humidity
42003;BME280;27693;50.506;30.832;2023-05-31T00:00:49;99657.60;;;16.84;45.57
42003;BME280;27693;50.506;30.832;2023-05-31T00:01:52;99660.47;;;16.81;45.52
42003;BME280;27693;50.506;30.832;2023-05-31T00:02:54;99658.05;;;16.77;45.90
42003;BME280;27693;50.506;30.832;2023-05-31T00:03:58;99656.38;;;16.76;45.65
42003;BME280;27693;50.506;30.832;2023-05-31T00:05:00;99659.33;;;16.72;45.79
42003;BME280;27693;50.506;30.832;2023-05-31T00:06:03;99662.31;;;16.67;45.71
42003;BME280;27693;50.506;30.832;2023-05-31T00:07:06;99661.08;;;16.60;45.96
42003;BME280;27693;50.506;30.832;2023-05-31T00:08:08;99658.71;;;16.68;45.85
42003;BME280;27693;50.506;30.832;2023-05-31T00:09:10;99666.50;;;16.70;45.79
42003;BME280;27693;50.506;30.832;2023-05-31T00:10:13;99663.64;;;16.73;45.67
42003;BME280;27693;50.506;30.832;2023-05-31T00:11:15;99667.13;;;16.73;45.40
42003;BME280;27693;50.506;30.832;2023-05-31T00:12:18;99661.87;;;16.73;45.45
42003;BME280;27693;50.506;30.832;2023-05-31T00:13:20;99667.00;;;16.75;45.36
42003;BME280;27693;50.506;30.832;2023-05-31T00:14:23;99658.50;;;16.71;45.58
42003;BME280;27693;50.506;30.832;2023-05-31T00:15:25;99660.39;;;16.69;45.52
42003;BME280;27693;50.506;30.832;2023-05-31T00:16:28;99659.33;;;16.72;45.23
42003;BME280;27693;50.506;30.832;2023-05-31T00:17:32;99666.67;;;16.80;45.22
42003;BME280;27693;50.506;30.832;2023-05-31T00:18:37;99659.95;;;16.75;45.08
42003;BME280;27693;50.506;30.832;2023-05-31T00:19:39;99660.19;;;16.72;45.23
42003;BME280;27693;50.506;30.832;2023-05-31T00:20:42;99652.02;;;16.64;45.50
42003;BME280;27693;50.506;30.832;2023-05-31T00:21:46;99652.02;;;16.64;45.50
42003;BME280;27693;50.506;30.832;2023-05-31T00:22:48;99659.12;;;16.75;45.29
42003;BME280;27693;50.506;30.832;2023-05-31T00:23:51;99665.81;;;16.79;45.21
42003;BME280;27693;50.506;30.832;2023-05-31T00:24:54;99663.80;;;16.83;45.23
42003;BME280;27693;50.506;30.832;2023-05-31T00:25:58;99662.65;;;16.87;45.32
42003;BME280;27693;50.506;30.832;2023-05-31T00:27:00;99661.17;;;16.83;45.27
42003;BME280;27693;50.506;30.832;2023-05-31T00:28:04;99659.41;;;16.83;45.20
42003;BME280;27693;50.506;30.832;2023-05-31T00:29:07;99660.72;;;16.89;45.14
42003;BME280;27693;50.506;30.832;2023-05-31T00:30:11;99657.70;;;16.95;45.00
42003;BME280;27693;50.506;30.832;2023-05-31T00:31:14;99653.20;;;16.84;46.00
42003;BME280;27693;50.506;30.832;2023-05-31T00:32:17;99656.45;;;16.88;45.89
42003;BME280;27693;50.506;30.832;2023-05-31T00:33:20;99660.97;;;16.86;46.20
42003;BME280;27693;50.506;30.832;2023-05-31T00:34:22;99657.51;;;16.61;47.48
42003;BME280;27693;50.506;30.832;2023-05-31T00:35:24;99656.47;;;16.51;48.29
42003;BME280;27693;50.506;30.832;2023-05-31T00:36:27;99656.89;;;16.57;48.06
42003;BME280;27693;50.506;30.832;2023-05-31T00:37:30;99664.41;;;16.62;48.31
42003;BME280;27693;50.506;30.832;2023-05-31T00:38:34;99665.39;;;16.61;49.03
42003;BME280;27693;50.506;30.832;2023-05-31T00:39:36;99665.80;;;16.55;49.30
42003;BME280;27693;50.506;30.832;2023-05-31T00:40:39;99666.03;;;16.52;49.71
42003;BME280;27693;50.506;30.832;2023-05-31T00:41:42;99664.55;;;16.23;53.53
42003;BME280;27693;50.506;30.832;2023-05-31T00:42:44;99660.73;;;16.27;52.51
42003;BME280;27693;50.506;30.832;2023-05-31T00:43:47;99666.81;;;16.28;53.22
42003;BME280;27693;50.506;30.832;2023-05-31T00:44:49;99666.86;;;16.15;54.27
42003;BME280;27693;50.506;30.832;2023-05-31T00:45:53;99668.03;;;15.98;56.45
42003;BME280;27693;50.506;30.832;2023-05-31T00:46:56;99670.34;;;15.90;58.19
42003;BME280;27693;50.506;30.832;2023-05-31T00:48:03;99676.76;;;15.86;59.52
42003;BME280;27693;50.506;30.832;2023-05-31T00:49:06;99678.80;;;15.80;60.01
42003;BME280;27693;50.506;30.832;2023-05-31T00:50:09;99680.16;;;15.73;61.25
42003;BME280;27693;50.506;30.832;2023-05-31T00:51:12;99677.54;;;15.73;62.75
42003;BME280;27693;50.506;30.832;2023-05-31T00:52:14;99680.25;;;15.59;63.80
42003;BME280;27693;50.506;30.832;2023-05-31T00:53:18;99682.16;;;15.57;64.53
42003;BME280;27693;50.506;30.832;2023-05-31T00:54:24;99674.81;;;15.62;64.74
42003;BME280;27693;50.506;30.832;2023-05-31T00:55:29;99662.97;;;15.69;65.20
42003;BME280;27693;50.506;30.832;2023-05-31T00:56:33;99666.64;;;15.67;66.00
42003;BME280;27693;50.506;30.832;2023-05-31T00:57:36;99675.01;;;15.59;66.58
42003;BME280;27693;50.506;30.832;2023-05-31T00:58:41;99676.92;;;15.57;66.99
42003;BME280;27693;50.506;30.832;2023-05-31T00:59:44;99681.22;;;15.58;66.95
42003;BME280;27693;50.506;30.832;2023-05-31T01:00:46;99683.84;;;15.58;67.16
42003;BME280;27693;50.506;30.832;2023-05-31T01:01:50;99680.48;;;15.56;67.45
42003;BME280;27693;50.506;30.832;2023-05-31T01:02:52;99673.55;;;15.55;67.45
42003;BME280;27693;50.506;30.832;2023-05-31T01:03:56;99676.17;;;15.55;67.39
42003;BME280;27693;50.506;30.832;2023-05-31T01:05:00;99674.92;;;15.60;67.29
42003;BME280;27693;50.506;30.832;2023-05-31T01:06:04;99675.01;;;15.59;67.26
42003;BME280;27693;50.506;30.832;2023-05-31T01:07:07;99677.85;;;15.56;67.40
42003;BME280;27693;50.506;30.832;2023-05-31T01:08:10;99681.11;;;15.59;67.27
42003;BME280;27693;50.506;30.832;2023-05-31T01:09:13;99678.80;;;15.55;67.31
42003;BME280;27693;50.506;30.832;2023-05-31T01:10:16;99672.50;;;15.57;67.31
42003;BME280;27693;50.506;30.832;2023-05-31T01:13:12;99681.74;;;15.63;67.05
42003;BME280;27693;50.506;30.832;2023-05-31T01:15:38;99675.56;;;15.64;66.91
42003;BME280;27693;50.506;30.832;2023-05-31T01:16:47;99688.25;;;15.70;66.69
42003;BME280;27693;50.506;30.832;2023-05-31T01:18:11;99681.52;;;15.66;66.66
42003;BME280;27693;50.506;30.832;2023-05-31T01:19:17;99672.52;;;15.70;66.52
42003;BME280;27693;50.506;30.832;2023-05-31T01:20:21;99673.23;;;15.72;66.40
42003;BME280;27693;50.506;30.832;2023-05-31T01:21:30;99678.40;;;15.74;65.93
42003;BME280;27693;50.506;30.832;2023-05-31T01:22:45;99671.16;;;15.77;65.89
42003;BME280;27693;50.506;30.832;2023-05-31T01:26:49;99679.85;;;15.78;65.78
42003;BME280;27693;50.506;30.832;2023-05-31T01:27:53;99682.78;;;15.73;65.83
42003;BME280;27693;50.506;30.832;2023-05-31T01:29:02;99690.13;;;15.68;66.02
42003;BME280;27693;50.506;30.832;2023-05-31T01:30:06;99685.11;;;15.65;66.12
42003;BME280;27693;50.506;30.832;2023-05-31T01:31:12;99682.27;;;15.68;66.00
42003;BME280;27693;50.506;30.832;2023-05-31T01:32:19;99685.11;;;15.65;66.03
42003;BME280;27693;50.506;30.832;2023-05-31T01:33:22;99686.13;;;15.62;66.15
42003;BME280;27693;50.506;30.832;2023-05-31T01:34:25;99695.05;;;15.60;66.08
42003;BME280;27693;50.506;30.832;2023-05-31T01:35:28;99687.19;;;15.60;65.95
42003;BME280;27693;50.506;30.832;2023-05-31T01:36:31;99687.82;;;15.51;66.12
42003;BME280;27693;50.506;30.832;2023-05-31T01:37:34;99683.92;;;15.43;66.41
42003;BME280;27693;50.506;30.832;2023-05-31T01:38:38;99690.41;;;15.38;66.41
42003;BME280;27693;50.506;30.832;2023-05-31T01:39:41;99683.70;;;15.46;66.04
42003;BME280;27693;50.506;30.832;2023-05-31T01:40:44;99688.84;;;15.48;65.69
42003;BME280;27693;50.506;30.832;2023-05-31T01:41:48;99687.82;;;15.51;65.48
42003;BME280;27693;50.506;30.832;2023-05-31T01:42:53;99686.77;;;15.53;65.41
42003;BME280;27693;50.506;30.832;2023-05-31T01:43:56;99689.47;;;15.52;65.55
42003;BME280;27693;50.506;30.832;2023-05-31T01:45:00;99687.19;;;15.47;65.58
42003;BME280;27693;50.506;30.832;2023-05-31T01:46:04;99689.47;;;15.52;65.13
42003;BME280;27693;50.506;30.832;2023-05-31T01:47:08;99694.52;;;15.55;65.01
42003;BME280;27693;50.506;30.832;2023-05-31T01:48:11;99697.15;;;15.55;65.11
42003;BME280;27693;50.506;30.832;2023-05-31T01:49:16;99692.65;;;15.57;64.55
42003;BME280;27693;50.506;30.832;2023-05-31T01:50:19;99699.95;;;15.52;64.73
42003;BME280;27693;50.506;30.832;2023-05-31T01:51:23;99702.28;;;15.43;64.93
42003;BME280;27693;50.506;30.832;2023-05-31T01:52:27;99697.23;;;15.40;65.03
42003;BME280;27693;50.506;30.832;2023-05-31T01:53:30;99692.20;;;15.37;64.82
42003;BME280;27693;50.506;30.832;2023-05-31T01:54:33;99691.16;;;15.40;64.77
42003;BME280;27693;50.506;30.832;2023-05-31T01:55:35;99689.88;;;15.45;64.64
42003;BME280;27693;50.506;30.832;2023-05-31T01:56:39;99700.18;;;15.48;64.34
42003;BME280;27693;50.506;30.832;2023-05-31T01:57:45;99707.19;;;15.35;64.93
42003;BME280;27693;50.506;30.832;2023-05-31T01:58:50;99704.75;;;15.32;64.83
42003;BME280;27693;50.506;30.832;2023-05-31T01:59:54;99705.61;;;15.32;64.94
42003;BME280;27693;50.506;30.832;2023-05-31T02:00:58;99706.96;;;15.38;64.50
42003;BME280;27693;50.506;30.832;2023-05-31T02:02:02;99707.52;;;15.43;64.12
42003;BME280;27693;50.506;30.832;2023-05-31T02:03:05;99696.81;;;15.46;64.07
42003;BME280;27693;50.506;30.832;2023-05-31T02:04:08;99704.19;;;15.54;63.89
42003;BME280;27693;50.506;30.832;2023-05-31T02:05:12;99710.25;;;15.55;63.67
42003;BME280;27693;50.506;30.832;2023-05-31T02:06:15;99716.25;;;15.57;63.73
42003;BME280;27693;50.506;30.832;2023-05-31T02:07:17;99701.45;;;15.56;63.66
42003;BME280;27693;50.506;30.832;2023-05-31T02:08:23;99698.72;;;15.57;63.82
42003;BME280;27693;50.506;30.832;2023-05-31T02:09:26;99705.54;;;15.60;63.68
42003;BME280;27693;50.506;30.832;2023-05-31T02:10:30;99715.09;;;15.61;63.98
42003;BME280;27693;50.506;30.832;2023-05-31T02:11:33;99717.52;;;15.64;63.91
42003;BME280;27693;50.506;30.832;2023-05-31T02:12:36;99714.89;;;15.64;64.21
42003;BME280;27693;50.506;30.832;2023-05-31T02:13:39;99716.25;;;15.57;65.04
42003;BME280;27693;50.506;30.832;2023-05-31T02:14:42;99708.56;;;15.41;66.01
42003;BME280;27693;50.506;30.832;2023-05-31T02:15:44;99704.79;;;15.45;65.80
42003;BME280;27693;50.506;30.832;2023-05-31T02:16:47;99709.51;;;15.53;65.77
42003;BME280;27693;50.506;30.832;2023-05-31T02:17:49;99709.43;;;15.54;66.03
42003;BME280;27693;50.506;30.832;2023-05-31T02:18:54;99721.68;;;15.54;66.24
42003;BME280;27693;50.506;30.832;2023-05-31T02:19:58;99708.80;;;15.51;66.41
42003;BME280;27693;50.506;30.832;2023-05-31T02:21:01;99706.88;;;15.40;66.98
42003;BME280;27693;50.506;30.832;2023-05-31T02:22:04;99704.56;;;15.35;67.39
42003;BME280;27693;50.506;30.832;2023-05-31T02:23:09;99698.80;;;15.43;67.26
42003;BME280;27693;50.506;30.832;2023-05-31T02:24:11;99713.48;;;15.45;67.41
42003;BME280;27693;50.506;30.832;2023-05-31T02:25:15;99711.42;;;15.51;67.14
42003;BME280;27693;50.506;30.832;2023-05-31T02:26:18;99703.41;;;15.39;67.69
42003;BME280;27693;50.506;30.832;2023-05-31T02:27:21;99713.23;;;15.23;68.52
42003;BME280;27693;50.506;30.832;2023-05-31T02:28:26;99702.53;;;15.26;68.66
42003;BME280;27693;50.506;30.832;2023-05-31T02:29:28;99705.50;;;15.34;68.54
42003;BME280;27693;50.506;30.832;2023-05-31T02:30:31;99702.69;;;15.37;68.33
42003;BME280;27693;50.506;30.832;2023-05-31T02:31:34;99711.27;;;15.39;68.53
42003;BME280;27693;50.506;30.832;2023-05-31T02:32:37;99710.03;;;15.45;68.04
42003;BME280;27693;50.506;30.832;2023-05-31T02:33:41;99710.03;;;15.45;68.04
42003;BME280;27693;50.506;30.832;2023-05-31T02:34:46;99697.67;;;15.47;68.19
42003;BME280;27693;50.506;30.832;2023-05-31T02:35:49;99710.22;;;15.42;68.55
42003;BME280;27693;50.506;30.832;2023-05-31T02:36:52;99709.20;;;15.44;68.52
42003;BME280;27693;50.506;30.832;2023-05-31T02:37:55;99707.94;;;15.50;68.20
42003;BME280;27693;50.506;30.832;2023-05-31T02:38:57;99707.75;;;15.53;68.09
42003;BME280;27693;50.506;30.832;2023-05-31T02:40:00;99715.39;;;15.56;67.92
42003;BME280;27693;50.506;30.832;2023-05-31T02:41:04;99718.87;;;15.57;67.71
42003;BME280;27693;50.506;30.832;2023-05-31T02:42:07;99716.14;;;15.58;67.66
42003;BME280;27693;50.506;30.832;2023-05-31T02:43:10;99720.75;;;15.55;68.25
42003;BME280;27693;50.506;30.832;2023-05-31T02:44:13;99723.17;;;15.58;68.13
42003;BME280;27693;50.506;30.832;2023-05-31T02:45:16;99722.02;;;15.62;68.09
42003;BME280;27693;50.506;30.832;2023-05-31T02:46:20;99723.70;;;15.63;67.91
42003;BME280;27693;50.506;30.832;2023-05-31T02:47:22;99735.66;;;15.67;67.63
42003;BME280;27693;50.506;30.832;2023-05-31T02:48:28;99735.88;;;15.64;67.66
42003;BME280;27693;50.506;30.832;2023-05-31T02:49:32;99734.19;;;15.63;66.97
42003;BME280;27693;50.506;30.832;2023-05-31T02:50:34;99745.09;;;15.57;66.91
42003;BME280;27693;50.506;30.832;2023-05-31T02:51:37;99743.41;;;15.56;67.16
42003;BME280;27693;50.506;30.832;2023-05-31T02:52:44;99750.34;;;15.57;66.99
42003;BME280;27693;50.506;30.832;2023-05-31T02:54:05;99755.98;;;15.51;66.86
42003;BME280;27693;50.506;30.832;2023-05-31T02:55:09;99759.33;;;15.53;66.90
42003;BME280;27693;50.506;30.832;2023-05-31T02:56:14;99759.33;;;15.53;66.90
42003;BME280;27693;50.506;30.832;2023-05-31T02:57:18;99758.27;;;15.42;66.44
42003;BME280;27693;50.506;30.832;2023-05-31T02:58:21;99766.61;;;15.34;65.69
42003;BME280;27693;50.506;30.832;2023-05-31T02:59:45;99768.56;;;15.18;65.89
42003;BME280;27693;50.506;30.832;2023-05-31T03:00:50;99764.79;;;15.22;65.75
42003;BME280;27693;50.506;30.832;2023-05-31T03:01:55;99758.72;;;15.22;65.38
42003;BME280;27693;50.506;30.832;2023-05-31T03:03:16;99758.08;;;15.18;65.26
42003;BME280;27693;50.506;30.832;2023-05-31T03:04:31;99756.85;;;15.24;65.00
42003;BME280;27693;50.506;30.832;2023-05-31T03:05:34;99754.02;;;15.27;64.57
42003;BME280;27693;50.506;30.832;2023-05-31T03:06:37;99757.57;;;15.26;64.34
42003;BME280;27693;50.506;30.832;2023-05-31T03:07:43;99759.08;;;15.30;64.53
42003;BME280;27693;50.506;30.832;2023-05-31T03:08:45;99759.50;;;15.37;64.18
42003;BME280;27693;50.506;30.832;2023-05-31T03:09:49;99757.73;;;15.37;63.63
42003;BME280;27693;50.506;30.832;2023-05-31T03:10:52;99757.63;;;15.39;63.33
42003;BME280;27693;50.506;30.832;2023-05-31T03:11:54;99757.39;;;15.29;63.35
42003;BME280;27693;50.506;30.832;2023-05-31T03:12:58;99763.45;;;15.29;63.25
42003;BME280;27693;50.506;30.832;2023-05-31T03:14:00;99767.66;;;15.32;63.28
42003;BME280;27693;50.506;30.832;2023-05-31T03:15:05;99761.34;;;15.22;63.29
42003;BME280;27693;50.506;30.832;2023-05-31T03:16:09;99769.03;;;15.10;63.70
42003;BME280;27693;50.506;30.832;2023-05-31T03:17:13;99768.13;;;14.97;64.33
42003;BME280;27693;50.506;30.832;2023-05-31T03:18:15;99768.13;;;14.97;64.44
42003;BME280;27693;50.506;30.832;2023-05-31T03:19:18;99770.59;;;14.85;64.68
42003;BME280;27693;50.506;30.832;2023-05-31T03:20:22;99770.59;;;14.85;64.70
42003;BME280;27693;50.506;30.832;2023-05-31T03:21:25;99771.92;;;14.78;65.10
42003;BME280;27693;50.506;30.832;2023-05-31T03:22:27;99771.17;;;14.76;65.30
42003;BME280;27693;50.506;30.832;2023-05-31T03:23:30;99766.14;;;14.73;65.42
42003;BME280;27693;50.506;30.832;2023-05-31T03:24:33;99773.61;;;14.79;65.19
42003;BME280;27693;50.506;30.832;2023-05-31T03:25:35;99772.47;;;14.83;65.18
42003;BME280;27693;50.506;30.832;2023-05-31T03:26:37;99766.58;;;14.80;65.47
42003;BME280;27693;50.506;30.832;2023-05-31T03:27:40;99767.23;;;14.83;65.34
42003;BME280;27693;50.506;30.832;2023-05-31T03:28:43;99763.39;;;14.89;65.02
42003;BME280;27693;50.506;30.832;2023-05-31T03:29:46;99766.84;;;14.90;65.01
42003;BME280;27693;50.506;30.832;2023-05-31T03:30:50;99766.84;;;14.90;64.99
42003;BME280;27693;50.506;30.832;2023-05-31T03:31:52;99770.50;;;14.87;64.86
42003;BME280;27693;50.506;30.832;2023-05-31T03:32:55;99776.05;;;14.82;65.16
42003;BME280;27693;50.506;30.832;2023-05-31T03:33:58;99774.54;;;14.78;65.23
42003;BME280;27693;50.506;30.832;2023-05-31T03:35:01;99778.95;;;14.78;65.25
42003;BME280;27693;50.506;30.832;2023-05-31T03:36:03;99777.70;;;14.83;65.27
42003;BME280;27693;50.506;30.832;2023-05-31T03:37:07;99779.86;;;14.91;64.93
42003;BME280;27693;50.506;30.832;2023-05-31T03:38:14;99774.63;;;14.91;65.08
42003;BME280;27693;50.506;30.832;2023-05-31T03:39:17;99774.63;;;14.91;65.11
42003;BME280;27693;50.506;30.832;2023-05-31T03:40:20;99775.45;;;14.92;65.15
42003;BME280;27693;50.506;30.832;2023-05-31T03:41:23;99775.27;;;14.95;64.96
42003;BME280;27693;50.506;30.832;2023-05-31T03:42:26;99780.90;;;14.89;65.05
42003;BME280;27693;50.506;30.832;2023-05-31T03:43:29;99772.83;;;14.92;65.01
42003;BME280;27693;50.506;30.832;2023-05-31T03:44:31;99775.84;;;14.85;65.39
42003;BME280;27693;50.506;30.832;2023-05-31T03:45:34;99784.84;;;14.81;65.11
42003;BME280;27693;50.506;30.832;2023-05-31T03:46:37;99788.18;;;14.83;64.94
42003;BME280;27693;50.506;30.832;2023-05-31T03:47:40;99787.63;;;14.78;65.11
42003;BME280;27693;50.506;30.832;2023-05-31T03:48:43;99788.18;;;14.83;64.97
42003;BME280;27693;50.506;30.832;2023-05-31T03:49:45;99786.86;;;14.91;64.97
42003;BME280;27693;50.506;30.832;2023-05-31T03:50:47;99780.51;;;14.95;64.74
42003;BME280;27693;50.506;30.832;2023-05-31T03:51:50;99787.80;;;14.90;65.00
42003;BME280;27693;50.506;30.832;2023-05-31T03:52:52;99795.76;;;14.88;64.97
42003;BME280;27693;50.506;30.832;2023-05-31T03:53:55;99794.00;;;14.89;65.04
42003;BME280;27693;50.506;30.832;2023-05-31T03:54:58;99795.47;;;14.93;65.10
42003;BME280;27693;50.506;30.832;2023-05-31T03:56:00;99809.40;;;14.93;65.15
42003;BME280;27693;50.506;30.832;2023-05-31T03:57:04;99802.94;;;14.99;64.97
42003;BME280;27693;50.506;30.832;2023-05-31T03:58:06;99793.61;;;14.95;65.08
42003;BME280;27693;50.506;30.832;2023-05-31T03:59:10;99799.57;;;14.97;64.73
42003;BME280;27693;50.506;30.832;2023-05-31T04:00:15;99804.45;;;15.03;64.55
42003;BME280;27693;50.506;30.832;2023-05-31T04:01:20;99803.31;;;15.07;64.30
42003;BME280;27693;50.506;30.832;2023-05-31T04:02:23;99804.63;;;15.00;64.24
42003;BME280;27693;50.506;30.832;2023-05-31T04:03:27;99807.80;;;15.05;64.47
42003;BME280;27693;50.506;30.832;2023-05-31T04:04:30;99809.95;;;15.13;64.27
42003;BME280;27693;50.506;30.832;2023-05-31T04:05:34;99822.58;;;15.06;64.59
42003;BME280;27693;50.506;30.832;2023-05-31T04:06:37;99818.94;;;14.94;64.74
42003;BME280;27693;50.506;30.832;2023-05-31T04:07:41;99817.19;;;14.95;64.55
42003;BME280;27693;50.506;30.832;2023-05-31T04:08:43;99819.31;;;15.03;64.36
42003;BME280;27693;50.506;30.832;2023-05-31T04:09:47;99809.48;;;15.06;64.26
42003;BME280;27693;50.506;30.832;2023-05-31T04:10:49;99813.22;;;15.16;64.13
42003;BME280;27693;50.506;30.832;2023-05-31T04:11:52;99819.28;;;15.17;63.88
42003;BME280;27693;50.506;30.832;2023-05-31T04:12:55;99816.02;;;15.13;63.78
42003;BME280;27693;50.506;30.832;2023-05-31T04:13:58;99811.42;;;15.17;63.57
42003;BME280;27693;50.506;30.832;2023-05-31T04:15:03;99808.70;;;15.18;63.45
42003;BME280;27693;50.506;30.832;2023-05-31T04:16:05;99804.10;;;15.22;63.57
42003;BME280;27693;50.506;30.832;2023-05-31T04:17:09;99808.70;;;15.18;63.09
42003;BME280;27693;50.506;30.832;2023-05-31T04:18:13;99812.47;;;15.14;63.41
42003;BME280;27693;50.506;30.832;2023-05-31T04:19:17;99818.64;;;15.13;63.63
42003;BME280;27693;50.506;30.832;2023-05-31T04:20:20;99823.48;;;15.20;63.96
42003;BME280;27693;50.506;30.832;2023-05-31T04:21:23;99820.82;;;15.07;63.68
42003;BME280;27693;50.506;30.832;2023-05-31T04:22:27;99821.44;;;15.10;63.72
42003;BME280;27693;50.506;30.832;2023-05-31T04:23:30;99823.13;;;15.11;63.87
42003;BME280;27693;50.506;30.832;2023-05-31T04:24:33;99816.84;;;15.14;63.71
42003;BME280;27693;50.506;30.832;2023-05-31T04:25:35;99820.86;;;15.20;63.56
42003;BME280;27693;50.506;30.832;2023-05-31T04:26:39;99823.88;;;15.13;63.57
42003;BME280;27693;50.506;30.832;2023-05-31T04:27:42;99831.56;;;15.16;63.88
42003;BME280;27693;50.506;30.832;2023-05-31T04:28:45;99827.97;;;15.17;63.40
42003;BME280;27693;50.506;30.832;2023-05-31T04:29:48;99837.88;;;15.27;63.39
42003;BME280;27693;50.506;30.832;2023-05-31T04:30:53;99834.22;;;15.29;63.42
42003;BME280;27693;50.506;30.832;2023-05-31T04:31:58;99833.75;;;15.37;63.15
42003;BME280;27693;50.506;30.832;2023-05-31T04:33:02;99827.22;;;15.30;62.87
42003;BME280;27693;50.506;30.832;2023-05-31T04:34:07;99827.22;;;15.30;62.87
42003;BME280;27693;50.506;30.832;2023-05-31T04:35:10;99839.36;;;15.31;62.88
42003;BME280;27693;50.506;30.832;2023-05-31T04:36:15;99832.78;;;15.38;62.96
42003;BME280;27693;50.506;30.832;2023-05-31T04:37:18;99837.09;;;15.39;62.86
42003;BME280;27693;50.506;30.832;2023-05-31T04:38:21;99834.18;;;15.44;62.61
42003;BME280;27693;50.506;30.832;2023-05-31T04:39:25;99840.90;;;15.48;62.79
42003;BME280;27693;50.506;30.832;2023-05-31T04:40:30;99836.30;;;15.52;62.56
42003;BME280;27693;50.506;30.832;2023-05-31T04:41:34;99840.42;;;15.56;62.75
42003;BME280;27693;50.506;30.832;2023-05-31T04:42:37;99837.69;;;15.57;61.98
42003;BME280;27693;50.506;30.832;2023-05-31T04:43:42;99843.88;;;15.56;61.99
42003;BME280;27693;50.506;30.832;2023-05-31T04:44:44;99840.95;;;15.61;62.09
42003;BME280;27693;50.506;30.832;2023-05-31T04:45:47;99849.58;;;15.63;62.14
42003;BME280;27693;50.506;30.832;2023-05-31T04:46:52;99849.28;;;15.68;62.09
42003;BME280;27693;50.506;30.832;2023-05-31T04:47:55;99848.02;;;15.73;61.96
42003;BME280;27693;50.506;30.832;2023-05-31T04:48:58;99849.59;;;15.76;61.87
42003;BME280;27693;50.506;30.832;2023-05-31T04:50:03;99855.70;;;15.76;61.66
42003;BME280;27693;50.506;30.832;2023-05-31T04:51:06;99848.20;;;15.85;61.62
42003;BME280;27693;50.506;30.832;2023-05-31T04:52:09;99849.37;;;15.93;61.38
42003;BME280;27693;50.506;30.832;2023-05-31T04:53:12;99850.77;;;15.99;61.33
42003;BME280;27693;50.506;30.832;2023-05-31T04:54:15;99852.34;;;16.02;61.06
42003;BME280;27693;50.506;30.832;2023-05-31T04:55:18;99849.72;;;16.02;61.23
42003;BME280;27693;50.506;30.832;2023-05-31T04:56:21;99858.64;;;15.99;61.23
42003;BME280;27693;50.506;30.832;2023-05-31T04:57:25;99855.60;;;16.05;61.11
42003;BME280;27693;50.506;30.832;2023-05-31T04:58:28;99854.44;;;16.09;61.07
42003;BME280;27693;50.506;30.832;2023-05-31T04:59:31;99860.22;;;16.15;60.84
42003;BME280;27693;50.506;30.832;2023-05-31T05:00:34;99856.46;;;16.19;60.58
42003;BME280;27693;50.506;30.832;2023-05-31T05:01:45;99859.61;;;16.24;60.60
42003;BME280;27693;50.506;30.832;2023-05-31T05:02:49;99866.32;;;16.28;60.42
42003;BME280;27693;50.506;30.832;2023-05-31T05:03:52;99862.76;;;16.29;60.30
42003;BME280;27693;50.506;30.832;2023-05-31T05:04:56;99861.07;;;16.28;60.02
42003;BME280;27693;50.506;30.832;2023-05-31T05:06:00;99860.13;;;16.29;59.58
42003;BME280;27693;50.506;30.832;2023-05-31T05:07:05;99866.13;;;16.31;59.66
42003;BME280;27693;50.506;30.832;2023-05-31T05:08:09;99860.66;;;16.34;59.80
42003;BME280;27693;50.506;30.832;2023-05-31T05:09:12;99865.52;;;16.40;60.03
42003;BME280;27693;50.506;30.832;2023-05-31T05:10:15;99860.34;;;16.39;59.45
42003;BME280;27693;50.506;30.832;2023-05-31T05:11:17;99856.15;;;16.36;59.71
42003;BME280;27693;50.506;30.832;2023-05-31T05:12:21;99857.72;;;16.39;59.78
42003;BME280;27693;50.506;30.832;2023-05-31T05:13:24;99855.21;;;16.37;59.02
42003;BME280;27693;50.506;30.832;2023-05-31T05:14:27;99855.21;;;16.37;59.02
42003;BME280;27693;50.506;30.832;2023-05-31T05:15:30;99858.27;;;16.44;58.60
42003;BME280;27693;50.506;30.832;2023-05-31T05:16:32;99858.27;;;16.44;58.60
42003;BME280;27693;50.506;30.832;2023-05-31T05:17:35;99856.05;;;16.51;58.20
42003;BME280;27693;50.506;30.832;2023-05-31T05:18:40;99856.05;;;16.51;58.20
42003;BME280;27693;50.506;30.832;2023-05-31T05:19:42;99854.36;;;16.50;58.49
42003;BME280;27693;50.506;30.832;2023-05-31T05:20:45;99855.22;;;16.50;58.57
42003;BME280;27693;50.506;30.832;2023-05-31T05:21:48;99861.39;;;16.62;58.54
42003;BME280;27693;50.506;30.832;2023-05-31T05:22:51;99853.52;;;16.62;58.48
42003;BME280;27693;50.506;30.832;2023-05-31T05:23:56;99858.57;;;16.65;58.45
42003;BME280;27693;50.506;30.832;2023-05-31T05:24:59;99858.34;;;16.68;58.22
42003;BME280;27693;50.506;30.832;2023-05-31T05:26:03;99859.83;;;16.59;58.27
42003;BME280;27693;50.506;30.832;2023-05-31T05:27:05;99856.26;;;16.60;58.33
42003;BME280;27693;50.506;30.832;2023-05-31T05:28:08;99855.86;;;16.54;58.56
42003;BME280;27693;50.506;30.832;2023-05-31T05:29:11;99845.44;;;16.52;58.52
42003;BME280;27693;50.506;30.832;2023-05-31T05:30:15;99855.63;;;16.57;58.14
42003;BME280;27693;50.506;30.832;2023-05-31T05:31:19;99855.20;;;16.63;58.35
42003;BME280;27693;50.506;30.832;2023-05-31T05:32:22;99855.20;;;16.63;58.35
42003;BME280;27693;50.506;30.832;2023-05-31T05:33:24;99855.52;;;16.71;58.48
42003;BME280;27693;50.506;30.832;2023-05-31T05:34:29;99854.46;;;16.74;58.13
42003;BME280;27693;50.506;30.832;2023-05-31T05:35:33;99853.32;;;16.78;58.08
42003;BME280;27693;50.506;30.832;2023-05-31T05:36:35;99847.20;;;16.77;57.92
42003;BME280;27693;50.506;30.832;2023-05-31T05:37:39;99854.45;;;16.87;57.84
42003;BME280;27693;50.506;30.832;2023-05-31T05:38:42;99857.51;;;16.93;57.68
42003;BME280;27693;50.506;30.832;2023-05-31T05:39:45;99863.19;;;17.00;57.34